AirNav   Duncan Aviation - Near you to keep you flying
 
 1596 users online  

6WA4 Ochoa Field Airport
Othello, Washington, USA

GOING TO OTHELLO?


FAA INFORMATION EFFECTIVE 02 DECEMBER 2021

Location

FAA Identifier: 6WA4
Lat/Long: 46-51-48.6800N 119-08-34.3300W
46-51.811333N 119-08.572167W
46.8635222,-119.1428694
(estimated)
Elevation: 1149 ft. / 350 m (estimated)
Variation: 19E (1985)
From city: 3 miles NE of OTHELLO, WA
Time zone: UTC -8 (UTC -7 during Daylight Saving Time)
Zip code: 99344

Airport Operations

Airport use: Private use. Permission required prior to landing
Activation date: 06/1971
Control tower: no
ARTCC: SEATTLE CENTER
FSS: SEATTLE FLIGHT SERVICE STATION
Attendance: IREG
Wind indicator: yes
Segmented circle: no
Lights: SS-SR

Nearby radio navigation aids

VOR radial/distance  VOR name  Freq  Var
MWHr143/22.0MOSES LAKE VOR/DME115.0018E
EPHr139/32.9EPHRATA VORTAC112.6021E
PSCr343/35.6PASCO VOR/DME109.8015E

Airport Services

Airframe service: NONE
Powerplant service: NONE

Runway Information

Runway N/S

Dimensions: 4500 x 40 ft. / 1372 x 12 m
Surface: asphalt
Runway edge lights: low intensity
W SIDE ONLY.
RUNWAY N  RUNWAY S
Traffic pattern: leftleft
Obstructions: bldgnone

Airport Ownership and Management from official FAA records

Ownership: Privately-owned
Owner: A.J. OCHOA CORP.
850 NORTH BROADWAY
OTHELLO, WA 99344
Phone 509-488-2227
Manager: A.J. OCHOA
850 NORTH BROADWAY
OTHELLO, WA 99344
Phone 509-488-2227

Airport Operational Statistics

Aircraft based on the field: 3
Single engine airplanes: 1
Jet airplanes: 1
Helicopters: 1
    

Additional Remarks

FOR CD CTC GRANT COUNTY APCH AT 509-762-2842, WHEN APCH CLSD CTC SEATTLE ARTCC AT 253-351-3694.

Instrument Procedures

There are no published instrument procedures at 6WA4.

Some nearby airports with instrument procedures:

KMWH - Grant County International Airport (22 nm N)
KEPH - Ephrata Municipal Airport (31 nm NW)
KRLD - Richland Airport (34 nm S)
KPSC - Tri-Cities Airport (36 nm S)
KEAT - Pangborn Memorial Airport (54 nm NW)
 
Loc | Ops | Rwys | IFR | FBO | Links
Com | Nav | Svcs | Stats | Notes
Area around 6WA4 (Ochoa Field Airport)
 
Road maps at: MapQuest Bing Google
 
Aerial photo
WARNING: Photo may not be current or correct
Aerial photo of 6WA4 (Ochoa Field Airport)
Do you have a better or more recent aerial photo of Ochoa Field Airport that you would like to share? If so, please send us your photo.

 
Sectional chart

 
Airport distance calculator
Flying to Ochoa Field Airport? Find the distance to fly.

From to 6WA4

Sunrise and sunset
Times for 06-Dec-2021
 Local
(UTC-8)
 Zulu
(UTC)
Morning civil twilight06:5314:53
Sunrise07:2815:28
Sunset16:0700:07
Evening civil twilight16:4200:42

Current date and time
Zulu (UTC)  06-Dec-2021 19:27:05
Local (UTC-8)  06-Dec-2021 11:27:05
 
METAR
KMWH 
21nm N 
061852Z 06005KT 10SM OVC048 01/M04 A3006 RMK AO2 SLP192 T00061039
KEPH 
30nm NW 
061853Z AUTO 05006KT 10SM OVC047 01/M05 A3005 RMK AO2 SLP189 T00061050
KRLD 
34nm S 
061915Z AUTO 32005KT 10SM SCT050 04/M01 A3007 RMK AO2 T00371009
KPSC 
36nm S 
061853Z 33004KT 10SM BKN050 OVC100 04/M01 A3007 RMK AO2 SLP185 T00441011
TAF
KMWH 
21nm N 
061740Z 0618/0718 00000KT P6SM -SN SCT019 OVC050 FM062000 02005KT P6SM OVC050 FM062300 02005KT P6SM OVC025 FM070000 VRB05KT P6SM OVC050 FM070800 VRB04KT P6SM OVC015
NOTAMs
Click for the latest NOTAMs
NOTAMs are issued by the DoD/FAA and will open in a separate window not controlled by AirNav.

 

 
 

Would you like to see your business listed on this page?

 If your business provides an interesting product or service to pilots, flight crews, aircraft, or users of the Ochoa Field Airport, you should consider listing it here.  To start the listing process, click on the button below
 
Add a business
 

Other Pages about Ochoa Field Airport

Update a link
 
Copyright © AirNav, LLC. All rights reserved. Privacy Policy  Contact